South Easton, MA (02375)

3:50 AM EST on February 07, 2016 (GMT -0500)
Walnut Street | | Change Station
CLOSE
Current Station
Personal Weather Station
Location: West Bridgewater, MA
Elevation: 85 ft
Nearby Weather Stations

Elev 85 ft 42.04 °N, 71.06 °W | Updated 4 minutes ago

Partly Cloudy
Partly Cloudy
24.1 °F
Feels Like 24 °F
N
0.0
Wind Variable Wind from North
Gusts 0.0 mph

Today
High -- | Low -- °F
--% Chance of Precip.
Yesterday
High -- | Low -- °F
Precip. -- in
Pressure 30.18 in
Visibility 10.0 miles
Clouds Clear
Windchill 24 °F
Dew Point 23 °F
Humidity 95%
Rainfall 0.00 in
Snow Depth Not available.
6:51 AM 5:06 PM
Waning Crescent, 2% visible
METAR KOWD 070753Z AUTO 00000KT 10SM CLR M03/M05 A3018 RMK AO2 SLP220 T10281050
Pressure 30.18 in
Visibility 10.0 miles
Clouds Clear
Windchill 24 °F
Dew Point 23 °F
Humidity 95%
Rainfall 0.00 in
Snow Depth Not available.
6:51 AM 5:06 PM
Waning Crescent, 2% visible
METAR KOWD 070753Z AUTO 00000KT 10SM CLR M03/M05 A3018 RMK AO2 SLP220 T10281050

10-Day Weather Forecast

Almanac

Astronomy

Feb. 07, 2016 Rise Set
Actual Time
Civil Twilight
Nautical Twilight
Astronomical Twilight
Moon
Length of Visible Light
Length of Day
Tomorrow will be .
, % of the Moon is Illuminated

Today's Extremes

State Highs State Lows

Community

WunderPhotos

Upload Photos

1,891,171 photos uploaded!

WunderBlog® & News

Nearby

Air Quality

  Air Quality AQ Index Pollutant
Not available.

Snow Depth

Station Depth Elevation

Earthquake Activity

City Distance Mag. Time & Date
Minimum magnitude displayed is 2.5.

Coastal Water Temperatures

Place Temperature

Stations

Nearby Weather Stations

Station Location Temp. Windchill Dew Point Humidity Wind Precip. Elev Updated Type
                   

Watches & Warnings

There are currently no watches in effect.